Time;durP1;ratioP1;P1;durP2;ratioP2;P2;SDS_P1;SDS_P2;PMS_P1;PMS_P2;Temp;Humidity;BMP_temperature;BMP_pressure;BME280_temperature;BME280_humidity;BME280_pressure;Samples;Min_cycle;Max_cycle;Signal;HPM_P1;HPM_P2
2020/12/27 00:01:55;;;;;;;12.57;11.38;;;28.40;81.00;;;;;;4985497;28;20659;-53
2020/12/27 00:04:35;;;;;;;11.93;10.50;;;28.40;81.10;;;;;;4987872;28;20315;-51
2020/12/27 00:07:07;;;;;;;12.65;11.35;;;28.40;81.20;;;;;;4989077;28;20759;-53
2020/12/27 00:09:39;;;;;;;16.50;13.30;;;28.40;81.20;;;;;;5021205;28;20235;-50
2020/12/27 00:12:09;;;;;;;14.48;13.13;;;28.40;81.50;;;;;;5026477;28;20256;-50
2020/12/27 00:14:40;;;;;;;13.20;12.07;;;28.40;81.50;;;;;;5005448;28;20684;-52
2020/12/27 00:17:11;;;;;;;13.05;11.95;;;28.40;81.60;;;;;;4968957;28;20229;-51
2020/12/27 00:19:42;;;;;;;13.70;12.30;;;28.40;81.70;;;;;;4967024;28;20600;-50
2020/12/27 00:22:13;;;;;;;13.35;12.25;;;28.40;81.90;;;;;;4969199;28;20635;-52
2020/12/27 00:24:45;;;;;;;13.30;12.00;;;28.50;82.10;;;;;;5006819;28;20628;-51
2020/12/27 00:27:15;;;;;;;14.77;13.23;;;28.50;82.30;;;;;;5050602;28;20273;-56
2020/12/27 00:29:46;;;;;;;13.65;12.45;;;28.50;82.50;;;;;;5021596;28;20307;-53
2020/12/27 00:32:17;;;;;;;14.50;13.07;;;28.60;82.70;;;;;;4965815;28;20247;-52
2020/12/27 00:34:53;;;;;;;15.85;14.45;;;28.60;82.90;;;;;;4993949;28;20593;-51
2020/12/27 00:37:24;;;;;;;17.08;15.57;;;28.70;83.00;;;;;;5050820;28;20225;-51
2020/12/27 00:39:56;;;;;;;17.50;15.90;;;28.70;83.20;;;;;;5009236;28;20247;-50
2020/12/27 00:42:26;;;;;;;18.65;16.85;;;28.80;83.50;;;;;;4969225;28;20237;-49
2020/12/27 00:44:56;;;;;;;20.60;18.80;;;28.80;83.40;;;;;;4970079;28;20306;-50
2020/12/27 00:47:27;;;;;;;20.85;18.95;;;28.80;83.40;;;;;;4969538;28;20241;-51
2020/12/27 00:49:57;;;;;;;21.88;19.90;;;28.90;83.50;;;;;;4971648;28;20657;-51
2020/12/27 00:52:27;;;;;;;20.25;18.45;;;29.00;83.30;;;;;;4970666;28;20232;-53
2020/12/27 00:55:00;;;;;;;20.00;18.13;;;29.10;83.30;;;;;;4963647;28;20228;-50
2020/12/27 00:57:30;;;;;;;19.65;17.83;;;29.10;83.20;;;;;;4970312;28;20256;-53
2020/12/27 01:00:01;;;;;;;20.75;18.92;;;29.20;83.10;;;;;;4965587;28;20264;-52
2020/12/27 01:02:32;;;;;;;21.33;19.52;;;29.20;83.10;;;;;;4920818;29;20238;-52
2020/12/27 01:05:10;;;;;;;20.55;18.60;;;29.30;83.00;;;;;;4925920;29;20965;-54
2020/12/27 01:07:41;;;;;;;20.67;18.67;;;29.40;83.00;;;;;;4925246;28;20245;-53
2020/12/27 01:10:13;;;;;;;19.05;17.55;;;29.40;82.90;;;;;;4928011;28;20253;-51
2020/12/27 01:12:43;;;;;;;20.00;18.27;;;29.50;83.00;;;;;;4926907;28;20241;-53
2020/12/27 01:15:14;;;;;;;20.25;18.27;;;29.50;83.00;;;;;;4890996;29;20325;-53
2020/12/27 01:17:45;;;;;;;18.63;17.02;;;29.60;83.00;;;;;;4889392;28;20810;-52
2020/12/27 01:20:15;;;;;;;18.20;16.48;;;29.70;82.90;;;;;;4888738;28;20294;-53
2020/12/27 01:22:46;;;;;;;17.20;15.63;;;29.70;82.70;;;;;;4890084;28;20236;-53
2020/12/27 01:25:18;;;;;;;17.02;15.38;;;29.80;82.60;;;;;;4890994;28;20243;-51
2020/12/27 01:27:48;;;;;;;15.98;14.57;;;29.90;82.50;;;;;;4888355;28;20596;-51
2020/12/27 01:30:19;;;;;;;12.57;11.48;;;30.00;82.20;;;;;;4890228;28;20239;-50
2020/12/27 01:32:49;;;;;;;14.90;13.27;;;30.00;81.70;;;;;;4913651;28;20266;-51
2020/12/27 01:35:33;;;;;;;12.43;11.38;;;30.10;81.50;;;;;;4947379;28;20709;-56
2020/12/27 01:38:04;;;;;;;10.75;9.85;;;30.20;81.30;;;;;;4947017;28;20736;-51
2020/12/27 01:40:35;;;;;;;11.43;10.40;;;30.30;80.70;;;;;;4945921;28;20245;-51
2020/12/27 01:43:06;;;;;;;12.82;11.60;;;30.30;80.10;;;;;;4949547;28;20325;-53
2020/12/27 01:45:36;;;;;;;9.90;8.65;;;30.40;79.70;;;;;;4954746;28;20241;-52
2020/12/27 01:48:08;;;;;;;9.07;8.23;;;30.50;78.80;;;;;;4971447;28;20278;-52
2020/12/27 01:50:38;;;;;;;8.85;8.05;;;30.50;78.00;;;;;;4969476;28;20232;-51
2020/12/27 01:53:09;;;;;;;8.68;7.93;;;30.50;77.60;;;;;;4971346;28;20601;-53
2020/12/27 01:55:41;;;;;;;7.80;7.13;;;30.60;77.40;;;;;;4971404;28;20718;-56
2020/12/27 01:58:18;;;;;;;7.22;6.63;;;30.70;76.70;;;;;;4968439;28;20236;-52
2020/12/27 02:00:53;;;;;;;7.32;6.57;;;30.80;76.20;;;;;;4970639;28;20236;-50
2020/12/27 02:03:24;;;;;;;9.73;7.57;;;30.80;76.10;;;;;;4969410;28;20323;-51
2020/12/27 02:05:54;;;;;;;6.93;6.32;;;30.90;75.70;;;;;;4976372;28;20692;-51
2020/12/27 02:08:25;;;;;;;7.22;6.53;;;31.00;75.90;;;;;;4971165;28;20745;-52
2020/12/27 02:10:56;;;;;;;7.30;6.65;;;31.10;75.80;;;;;;4969790;28;20258;-51
2020/12/27 02:13:27;;;;;;;7.72;7.03;;;31.20;75.50;;;;;;4970226;28;20242;-52
2020/12/27 02:15:58;;;;;;;6.78;6.18;;;31.20;75.50;;;;;;4964045;28;20312;-50
2020/12/27 02:18:28;;;;;;;7.43;6.72;;;31.30;75.40;;;;;;4964336;28;20498;-51
2020/12/27 02:20:59;;;;;;;7.30;6.70;;;31.40;75.00;;;;;;4968559;28;20229;-53
2020/12/27 02:23:30;;;;;;;7.10;6.38;;;31.50;74.30;;;;;;4965086;28;20982;-50
2020/12/27 02:26:01;;;;;;;7.15;6.50;;;31.60;74.30;;;;;;4969124;28;20232;-53
2020/12/27 02:28:32;;;;;;;7.70;6.78;;;31.60;73.90;;;;;;4969147;28;20835;-52
2020/12/27 02:31:02;;;;;;;6.80;6.20;;;31.70;73.70;;;;;;4967940;28;20248;-53
2020/12/27 02:33:33;;;;;;;7.20;6.50;;;31.80;73.50;;;;;;4964980;28;20648;-51
2020/12/27 02:36:12;;;;;;;7.38;6.50;;;31.90;72.90;;;;;;4968857;28;20270;-52
2020/12/27 02:38:43;;;;;;;6.18;5.57;;;32.00;72.20;;;;;;4967309;28;20260;-51
2020/12/27 02:41:16;;;;;;;5.53;5.10;;;32.10;71.90;;;;;;4968199;28;20245;-50
2020/12/27 02:43:47;;;;;;;6.70;6.10;;;32.10;70.40;;;;;;4966711;28;20240;-51
2020/12/27 02:46:21;;;;;;;5.90;5.40;;;32.20;70.40;;;;;;4968128;28;20734;-50
2020/12/27 02:48:52;;;;;;;6.30;5.70;;;32.30;69.70;;;;;;4945763;28;20269;-54
2020/12/27 02:51:22;;;;;;;6.40;5.43;;;32.30;70.10;;;;;;4927587;29;20245;-53
2020/12/27 02:53:53;;;;;;;5.93;5.13;;;32.40;70.40;;;;;;4969667;28;20330;-53
2020/12/27 02:56:25;;;;;;;6.35;5.85;;;32.50;70.40;;;;;;4946294;29;20233;-52
2020/12/27 02:58:56;;;;;;;6.90;6.30;;;32.50;68.50;;;;;;4946118;28;20244;-52
2020/12/27 03:01:27;;;;;;;5.82;5.43;;;32.50;68.40;;;;;;4937607;28;20238;-54
2020/12/27 03:03:59;;;;;;;5.97;5.32;;;32.60;68.60;;;;;;4945704;28;20252;-53
2020/12/27 03:06:31;;;;;;;6.47;5.85;;;32.70;68.80;;;;;;4946482;29;20303;-52
2020/12/27 03:09:02;;;;;;;6.40;5.80;;;32.70;67.90;;;;;;4946596;29;20290;-53
2020/12/27 03:11:33;;;;;;;5.38;4.80;;;32.80;68.70;;;;;;4944904;28;20720;-61
2020/12/27 03:14:06;;;;;;;6.05;5.55;;;32.90;68.50;;;;;;4946848;28;20791;-55
2020/12/27 03:16:36;;;;;;;5.40;4.90;;;33.00;68.20;;;;;;4947258;29;20268;-55
2020/12/27 03:19:07;;;;;;;5.22;4.72;;;33.00;68.10;;;;;;4949961;28;20241;-57
2020/12/27 03:21:37;;;;;;;5.22;4.78;;;33.20;68.20;;;;;;4964245;28;20626;-56
2020/12/27 03:24:08;;;;;;;4.45;4.15;;;33.20;67.90;;;;;;4967183;28;20263;-53
2020/12/27 03:26:39;;;;;;;5.10;4.65;;;33.30;67.90;;;;;;4969283;28;20240;-54
2020/12/27 03:29:10;;;;;;;5.32;4.82;;;33.40;67.50;;;;;;4969120;28;20236;-52
2020/12/27 03:31:41;;;;;;;5.00;4.50;;;33.50;67.20;;;;;;4968407;28;20241;-52
2020/12/27 03:34:11;;;;;;;5.60;5.10;;;33.60;67.00;;;;;;4969794;28;20256;-56
2020/12/27 03:36:47;;;;;;;6.05;5.45;;;33.70;66.40;;;;;;4967904;28;20240;-53
2020/12/27 03:39:17;;;;;;;6.10;5.50;;;33.80;66.40;;;;;;4968097;28;20607;-53
2020/12/27 03:41:48;;;;;;;5.78;5.28;;;33.90;65.30;;;;;;4966864;28;20715;-55
2020/12/27 03:44:19;;;;;;;6.03;5.53;;;34.00;65.10;;;;;;4966323;28;20224;-53
2020/12/27 03:46:50;;;;;;;5.28;4.78;;;34.10;65.10;;;;;;4967446;28;20236;-52
2020/12/27 03:49:20;;;;;;;4.93;4.53;;;34.10;64.70;;;;;;4967516;28;20241;-53
2020/12/27 03:51:51;;;;;;;5.63;5.13;;;34.20;64.20;;;;;;4966984;28;20626;-54
2020/12/27 03:54:21;;;;;;;5.55;5.05;;;34.20;64.00;;;;;;4965770;28;20235;-55
2020/12/27 03:56:53;;;;;;;5.60;5.20;;;34.20;63.80;;;;;;4963523;28;20366;-53
2020/12/27 03:59:23;;;;;;;5.70;5.20;;;34.30;63.70;;;;;;4967468;28;20232;-56
2020/12/27 04:01:54;;;;;;;6.13;5.63;;;34.30;63.80;;;;;;4965203;28;20237;-56
2020/12/27 04:04:25;;;;;;;7.10;6.47;;;34.40;63.20;;;;;;4965456;28;20228;-55
2020/12/27 04:07:06;;;;;;;6.22;5.72;;;34.40;62.60;;;;;;4967042;28;20298;-66
2020/12/27 04:09:36;;;;;;;6.07;5.57;;;34.40;62.40;;;;;;4967067;28;20294;-50
2020/12/27 04:12:13;;;;;;;10.18;9.25;;;34.50;62.60;;;;;;4960788;28;20996;-51
2020/12/27 04:14:43;;;;;;;12.85;11.52;;;34.50;63.40;;;;;;4965528;28;20231;-52
2020/12/27 04:17:14;;;;;;;12.68;11.48;;;34.50;64.10;;;;;;4966336;28;20236;-52
2020/12/27 04:19:44;;;;;;;11.23;10.23;;;34.50;64.10;;;;;;4967070;28;20228;-50
2020/12/27 04:22:15;;;;;;;10.88;9.88;;;34.50;64.30;;;;;;4966055;28;20232;-51
2020/12/27 04:24:46;;;;;;;10.27;9.38;;;34.50;63.90;;;;;;4956444;28;20265;-50
2020/12/27 04:27:18;;;;;;;11.80;10.75;;;34.50;63.60;;;;;;4964900;28;20241;-49
2020/12/27 04:29:48;;;;;;;12.80;11.75;;;34.50;63.10;;;;;;4966718;28;20286;-50
2020/12/27 04:32:19;;;;;;;11.30;10.30;;;34.50;62.70;;;;;;4966044;28;20621;-49
2020/12/27 04:34:49;;;;;;;9.93;9.13;;;34.40;63.20;;;;;;4960263;28;20248;-49
2020/12/27 04:37:29;;;;;;;9.48;8.65;;;34.40;63.90;;;;;;4959584;28;20236;-50
2020/12/27 04:39:59;;;;;;;10.45;9.55;;;34.40;64.20;;;;;;4965205;28;20667;-50
2020/12/27 04:42:33;;;;;;;11.07;9.60;;;34.40;64.30;;;;;;4966404;28;20236;-53
2020/12/27 04:45:03;;;;;;;11.20;9.02;;;34.40;63.70;;;;;;4967958;28;20240;-53
2020/12/27 04:47:34;;;;;;;10.55;9.60;;;34.40;64.00;;;;;;4966395;28;20357;-50
2020/12/27 04:50:06;;;;;;;10.82;9.40;;;34.50;63.80;;;;;;4910930;28;20260;-54
2020/12/27 04:52:36;;;;;;;10.57;9.70;;;34.60;63.50;;;;;;4924558;28;20241;-50
2020/12/27 04:55:07;;;;;;;11.07;9.98;;;34.60;63.40;;;;;;4923718;29;20751;-54
2020/12/27 04:57:38;;;;;;;9.02;8.23;;;34.60;63.30;;;;;;4926706;28;20249;-49
2020/12/27 05:00:09;;;;;;;9.65;8.80;;;34.60;64.10;;;;;;4871315;29;20319;-50
2020/12/27 05:02:40;;;;;;;9.55;8.75;;;34.60;63.20;;;;;;4870647;28;20239;-49
2020/12/27 05:05:14;;;;;;;11.82;10.68;;;34.60;63.40;;;;;;4871604;29;20247;-53
2020/12/27 05:07:46;;;;;;;11.45;10.23;;;34.60;63.00;;;;;;4870438;28;20380;-53
2020/12/27 05:10:16;;;;;;;9.90;8.90;;;34.60;62.90;;;;;;4867011;28;20245;-50
2020/12/27 05:12:49;;;;;;;10.57;9.48;;;34.60;62.40;;;;;;4863231;28;20456;-51
2020/12/27 05:15:19;;;;;;;11.52;9.95;;;34.60;62.40;;;;;;4871863;28;20247;-53
2020/12/27 05:17:50;;;;;;;10.43;9.48;;;34.60;62.60;;;;;;4863300;28;20239;-49
2020/12/27 05:20:20;;;;;;;10.30;9.30;;;34.60;63.50;;;;;;4882822;29;20361;-51
2020/12/27 05:22:51;;;;;;;9.98;9.07;;;34.60;62.00;;;;;;4927282;28;20242;-50
2020/12/27 05:25:21;;;;;;;9.20;8.40;;;34.60;62.40;;;;;;4927179;28;20241;-51
2020/12/27 05:27:54;;;;;;;9.13;8.32;;;34.60;62.30;;;;;;4987940;28;20231;-55
2020/12/27 05:30:28;;;;;;;8.75;7.88;;;34.70;62.10;;;;;;4958987;28;20289;-54
2020/12/27 05:32:58;;;;;;;9.02;8.23;;;34.70;62.10;;;;;;4999770;28;20253;-55
2020/12/27 05:35:29;;;;;;;10.57;9.68;;;34.70;62.60;;;;;;5009946;28;20235;-51
2020/12/27 05:38:03;;;;;;;8.50;7.80;;;34.80;62.40;;;;;;5006993;28;20274;-49
2020/12/27 05:40:36;;;;;;;8.57;7.80;;;34.80;62.50;;;;;;4952953;29;20647;-51
2020/12/27 05:43:16;;;;;;;9.23;8.48;;;34.80;62.30;;;;;;4935162;28;20244;-52
2020/12/27 05:45:47;;;;;;;8.18;7.38;;;34.80;61.90;;;;;;4934202;29;20233;-49
2020/12/27 05:48:18;;;;;;;8.60;7.80;;;34.80;61.50;;;;;;4937372;29;20237;-52
2020/12/27 05:50:50;;;;;;;9.07;8.18;;;34.80;61.20;;;;;;4914886;29;20964;-52
2020/12/27 05:53:22;;;;;;;6.78;6.18;;;34.70;61.20;;;;;;4857915;29;20285;-53
2020/12/27 05:55:54;;;;;;;7.25;6.65;;;34.70;61.70;;;;;;4857999;29;20267;-49
2020/12/27 05:58:25;;;;;;;7.40;6.70;;;34.60;61.70;;;;;;4863604;29;20235;-49
2020/12/27 06:00:56;;;;;;;7.15;6.43;;;34.50;62.00;;;;;;4888362;29;20262;-51
2020/12/27 06:03:27;;;;;;;6.75;6.15;;;34.50;62.40;;;;;;4929398;29;20241;-52
2020/12/27 06:06:10;;;;;;;8.70;6.85;;;34.40;62.40;;;;;;4965956;28;20283;-51
2020/12/27 06:09:08;;;;;;;8.48;7.68;;;34.30;62.30;;;;;;4970519;28;20283;-53
2020/12/27 06:11:58;;;;;;;9.23;7.65;;;34.30;62.20;;;;;;4971581;28;20299;-54
2020/12/27 06:14:40;;;;;;;8.93;8.13;;;34.20;62.60;;;;;;4968501;28;20267;-50
2020/12/27 06:17:14;;;;;;;8.18;7.38;;;34.20;62.70;;;;;;4969005;28;20243;-52
2020/12/27 06:20:07;;;;;;;9.05;8.25;;;34.10;62.50;;;;;;4971086;28;20254;-54
2020/12/27 06:22:37;;;;;;;7.63;6.93;;;34.10;62.60;;;;;;4904026;28;20288;-52
2020/12/27 06:25:08;;;;;;;7.32;6.63;;;34.20;63.30;;;;;;4974781;28;20263;-52
2020/12/27 06:27:39;;;;;;;7.75;7.05;;;34.20;63.20;;;;;;4990974;28;20258;-51
2020/12/27 06:30:10;;;;;;;10.93;10.02;;;34.20;63.40;;;;;;4989712;28;20290;-50
2020/12/27 06:32:47;;;;;;;10.50;9.40;;;34.20;65.90;;;;;;4989330;28;20639;-51
2020/12/27 06:35:18;;;;;;;8.80;8.00;;;34.30;66.70;;;;;;4990127;28;20286;-50
2020/12/27 06:37:49;;;;;;;9.18;8.35;;;34.30;66.20;;;;;;4989877;28;20326;-52
2020/12/27 06:40:19;;;;;;;7.85;7.25;;;34.30;66.00;;;;;;4989330;28;20239;-49
2020/12/27 06:42:50;;;;;;;8.75;7.80;;;34.30;65.90;;;;;;4894455;29;20318;-51
2020/12/27 06:45:31;;;;;;;8.77;7.47;;;34.40;66.00;;;;;;4876111;29;20318;-55
2020/12/27 06:48:02;;;;;;;8.95;8.05;;;34.40;66.50;;;;;;4876528;29;20243;-50
2020/12/27 06:50:32;;;;;;;8.55;7.75;;;34.40;64.60;;;;;;4918912;29;20238;-53
2020/12/27 06:53:03;;;;;;;9.20;8.30;;;34.30;64.00;;;;;;4932742;29;20377;-53
2020/12/27 06:55:36;;;;;;;8.80;8.00;;;34.30;64.00;;;;;;4946800;28;20290;-50
2020/12/27 06:58:23;;;;;;;7.85;7.18;;;34.20;63.90;;;;;;4990661;28;20240;-52
2020/12/27 07:01:13;;;;;;;7.00;6.40;;;34.10;64.00;;;;;;4986413;28;20299;-51
2020/12/27 07:03:43;;;;;;;7.80;7.10;;;34.10;64.00;;;;;;4989928;28;20231;-51
2020/12/27 07:06:22;;;;;;;7.72;7.00;;;34.00;64.20;;;;;;4981504;28;20232;-50
2020/12/27 07:09:03;;;;;;;9.82;7.13;;;34.00;64.30;;;;;;4989459;28;20681;-52
2020/12/27 07:11:35;;;;;;;7.35;6.65;;;33.90;64.20;;;;;;4980967;28;20239;-53
2020/12/27 07:14:05;;;;;;;7.60;6.88;;;33.90;63.60;;;;;;4978406;28;20237;-52
2020/12/27 07:16:49;;;;;;;6.47;5.95;;;33.80;63.20;;;;;;4967227;28;20592;-51
2020/12/27 07:19:20;;;;;;;8.85;8.05;;;33.80;64.10;;;;;;4957374;28;20282;-54
2020/12/27 07:21:50;;;;;;;8.25;7.45;;;33.70;63.30;;;;;;4998532;28;20236;-51
2020/12/27 07:24:23;;;;;;;7.75;7.15;;;33.80;62.60;;;;;;5050238;28;20653;-52
2020/12/27 07:26:53;;;;;;;8.90;8.10;;;33.70;62.10;;;;;;4970143;28;20235;-53
2020/12/27 07:29:25;;;;;;;7.90;7.20;;;33.70;62.90;;;;;;4969653;28;20240;-49
2020/12/27 07:31:57;;;;;;;8.23;7.43;;;33.70;63.20;;;;;;4989223;28;20242;-50
2020/12/27 07:34:27;;;;;;;7.55;6.85;;;33.70;63.50;;;;;;5052058;28;20234;-51
2020/12/27 07:37:04;;;;;;;6.95;6.35;;;33.70;63.40;;;;;;4972631;28;20232;-50
2020/12/27 07:39:53;;;;;;;9.27;7.55;;;33.70;63.90;;;;;;4968834;28;20243;-51
2020/12/27 07:42:25;;;;;;;7.85;7.15;;;33.70;64.20;;;;;;4968744;28;20248;-51
2020/12/27 07:44:55;;;;;;;7.75;7.03;;;33.80;63.80;;;;;;4969998;28;20241;-51
2020/12/27 07:47:27;;;;;;;8.02;7.22;;;33.80;62.60;;;;;;4969680;28;20286;-51
2020/12/27 07:50:11;;;;;;;7.78;7.18;;;33.90;61.30;;;;;;4969609;28;20304;-49
2020/12/27 07:52:51;;;;;;;8.32;7.25;;;33.90;61.80;;;;;;4968824;28;20702;-51
2020/12/27 07:55:32;;;;;;;7.60;7.00;;;34.00;62.20;;;;;;4969143;28;20233;-51
2020/12/27 07:58:03;;;;;;;9.23;8.43;;;34.10;62.10;;;;;;4949778;28;20235;-50
2020/12/27 08:00:34;;;;;;;30.02;26.85;;;34.10;62.30;;;;;;4965844;28;20315;-53
2020/12/27 08:03:09;;;;;;;9.52;8.52;;;34.20;62.30;;;;;;4968916;28;20241;-51
2020/12/27 08:05:40;;;;;;;8.50;7.70;;;34.30;61.50;;;;;;4968963;28;20231;-49
2020/12/27 08:08:11;;;;;;;7.05;6.40;;;34.30;61.70;;;;;;4965174;28;21706;-53
2020/12/27 08:10:42;;;;;;;7.75;7.05;;;34.30;61.90;;;;;;4967244;28;20224;-52
2020/12/27 08:13:15;;;;;;;7.97;7.25;;;34.40;62.10;;;;;;4965754;28;20319;-50
2020/12/27 08:15:45;;;;;;;7.88;7.07;;;34.40;61.70;;;;;;4956554;28;20253;-48
2020/12/27 08:18:17;;;;;;;6.30;5.80;;;34.50;61.60;;;;;;4966310;28;20358;-49
2020/12/27 08:20:48;;;;;;;8.23;7.43;;;34.50;61.90;;;;;;4967836;28;20252;-49
2020/12/27 08:23:19;;;;;;;7.72;6.68;;;34.60;61.50;;;;;;4969028;28;20286;-48
2020/12/27 08:25:59;;;;;;;7.63;6.95;;;34.60;61.40;;;;;;4968505;28;20240;-51
2020/12/27 08:28:35;;;;;;;8.32;7.53;;;34.60;60.60;;;;;;5022589;28;20230;-49
2020/12/27 08:31:05;;;;;;;7.53;6.93;;;34.70;60.80;;;;;;5027561;28;20238;-48
2020/12/27 08:33:37;;;;;;;7.10;6.40;;;34.70;60.50;;;;;;5027609;28;20301;-50
2020/12/27 08:36:07;;;;;;;7.72;7.03;;;34.70;60.40;;;;;;5026950;28;20384;-48
2020/12/27 08:38:41;;;;;;;8.00;6.68;;;34.70;60.20;;;;;;5004129;28;20223;-52
2020/12/27 08:41:15;;;;;;;8.13;7.53;;;34.70;60.40;;;;;;5001044;28;20266;-51
2020/12/27 08:43:59;;;;;;;7.65;7.00;;;34.70;60.40;;;;;;5005935;28;20384;-49
2020/12/27 08:46:34;;;;;;;7.72;7.03;;;34.70;60.80;;;;;;4987444;28;20695;-51
2020/12/27 08:49:09;;;;;;;9.18;8.15;;;34.70;60.50;;;;;;5006634;28;20309;-48
2020/12/27 08:51:50;;;;;;;10.10;9.20;;;34.70;60.20;;;;;;5006726;28;20238;-49
2020/12/27 08:54:21;;;;;;;10.02;9.13;;;34.70;60.40;;;;;;5001485;28;20911;-49
2020/12/27 08:56:52;;;;;;;11.57;10.57;;;34.70;60.40;;;;;;4993001;28;20717;-51
2020/12/27 08:59:22;;;;;;;11.95;10.48;;;34.60;60.60;;;;;;5013022;28;20234;-50
2020/12/27 09:01:53;;;;;;;9.50;8.60;;;34.60;60.60;;;;;;5026405;28;20329;-50
2020/12/27 09:04:25;;;;;;;7.70;7.00;;;34.60;60.40;;;;;;5025223;28;20336;-53
2020/12/27 09:06:56;;;;;;;8.50;7.80;;;34.60;60.50;;;;;;5008783;28;20262;-50
2020/12/27 09:09:27;;;;;;;9.35;7.75;;;34.60;60.20;;;;;;4981729;28;20237;-50
2020/12/27 09:11:57;;;;;;;8.30;7.70;;;34.60;60.50;;;;;;4968797;28;20973;-50
2020/12/27 09:14:35;;;;;;;10.20;9.27;;;34.60;60.50;;;;;;4967810;28;20247;-49
2020/12/27 09:17:06;;;;;;;10.13;9.25;;;34.60;60.80;;;;;;4967312;28;20315;-50
2020/12/27 09:19:38;;;;;;;11.32;10.23;;;34.60;60.90;;;;;;4968883;28;20298;-48
2020/12/27 09:22:09;;;;;;;12.48;11.27;;;34.60;61.30;;;;;;4968165;28;20241;-52
2020/12/27 09:24:40;;;;;;;10.00;9.00;;;34.60;61.50;;;;;;4967806;28;20225;-48
2020/12/27 09:27:11;;;;;;;9.38;8.57;;;34.60;61.40;;;;;;4965736;28;20262;-48
2020/12/27 09:29:41;;;;;;;8.20;7.50;;;34.60;61.30;;;;;;4967492;28;20237;-48
2020/12/27 09:32:12;;;;;;;9.73;8.88;;;34.60;61.30;;;;;;4969237;28;20668;-49
2020/12/27 09:34:44;;;;;;;10.20;9.30;;;34.60;61.40;;;;;;4968380;28;20657;-49
2020/12/27 09:37:15;;;;;;;8.95;8.07;;;34.60;61.20;;;;;;4966598;28;20618;-49
2020/12/27 09:39:46;;;;;;;8.85;8.05;;;34.60;61.10;;;;;;4969012;28;20247;-49
2020/12/27 09:42:24;;;;;;;9.40;8.50;;;34.60;60.80;;;;;;4968778;28;20236;-48
2020/12/27 09:44:55;;;;;;;9.02;8.13;;;34.60;61.10;;;;;;4967755;28;20236;-49
2020/12/27 09:47:26;;;;;;;9.57;8.57;;;34.60;61.40;;;;;;4968768;28;20236;-49
2020/12/27 09:50:06;;;;;;;9.10;8.20;;;34.60;61.10;;;;;;4968112;28;20244;-48
2020/12/27 09:52:46;;;;;;;10.05;9.15;;;34.60;60.90;;;;;;4968108;28;20236;-52
2020/12/27 09:55:16;;;;;;;9.50;8.68;;;34.60;61.00;;;;;;4969442;28;21141;-50
2020/12/27 09:57:47;;;;;;;10.45;9.55;;;34.50;60.70;;;;;;4968545;28;20245;-49
2020/12/27 10:00:17;;;;;;;10.60;8.38;;;34.50;60.80;;;;;;4968343;28;20240;-53
2020/12/27 10:02:47;;;;;;;9.48;8.57;;;34.40;60.60;;;;;;4969026;28;20239;-49
2020/12/27 10:05:19;;;;;;;10.93;9.95;;;34.30;60.40;;;;;;4968908;28;20307;-52
2020/12/27 10:07:51;;;;;;;10.07;9.13;;;34.30;60.30;;;;;;4967551;28;20302;-49
2020/12/27 10:10:21;;;;;;;9.85;8.85;;;34.20;60.50;;;;;;4949831;28;20287;-51
2020/12/27 10:12:52;;;;;;;8.73;7.88;;;34.10;60.70;;;;;;4968139;28;20738;-49
2020/12/27 10:15:23;;;;;;;8.38;7.40;;;33.90;60.90;;;;;;4968691;28;20345;-48
2020/12/27 10:17:54;;;;;;;8.75;7.82;;;33.90;61.20;;;;;;4959620;28;20237;-49
2020/12/27 10:20:25;;;;;;;8.88;7.97;;;33.80;61.60;;;;;;4967312;28;20235;-50
2020/12/27 10:22:56;;;;;;;12.23;9.43;;;33.80;62.00;;;;;;4967575;28;20268;-50
2020/12/27 10:25:27;;;;;;;10.10;8.38;;;33.70;62.50;;;;;;4967861;28;20237;-52
2020/12/27 10:27:57;;;;;;;9.43;8.48;;;33.60;62.60;;;;;;4963880;28;20316;-49
2020/12/27 10:30:28;;;;;;;10.95;9.10;;;33.50;62.80;;;;;;4966793;28;20233;-50
2020/12/27 10:33:04;;;;;;;8.73;7.93;;;33.50;63.30;;;;;;4956378;28;20640;-49
2020/12/27 10:35:36;;;;;;;10.15;8.95;;;33.40;63.20;;;;;;4949467;28;20327;-52
2020/12/27 10:38:07;;;;;;;10.45;8.90;;;33.40;63.50;;;;;;4951924;28;20323;-54
2020/12/27 10:40:39;;;;;;;10.85;9.63;;;33.40;63.70;;;;;;4968376;28;20298;-49
2020/12/27 10:43:10;;;;;;;9.57;8.40;;;33.30;63.70;;;;;;4967964;28;20232;-49
2020/12/27 10:45:41;;;;;;;10.85;9.13;;;33.30;63.80;;;;;;4968247;28;20236;-52
2020/12/27 10:48:12;;;;;;;11.45;9.57;;;33.20;64.10;;;;;;4967886;28;20240;-51
2020/12/27 10:50:43;;;;;;;8.45;7.75;;;33.10;64.10;;;;;;4967996;28;20719;-52
2020/12/27 10:53:14;;;;;;;10.05;9.15;;;33.10;64.30;;;;;;4988022;28;20242;-49
2020/12/27 10:55:48;;;;;;;8.55;7.75;;;33.00;64.40;;;;;;5049852;28;20317;-49
2020/12/27 10:58:18;;;;;;;8.65;7.82;;;33.00;64.50;;;;;;5002103;28;20309;-50
2020/12/27 11:00:49;;;;;;;8.77;7.82;;;32.90;64.60;;;;;;4967202;28;20680;-51
2020/12/27 11:03:20;;;;;;;8.48;7.68;;;32.90;64.90;;;;;;4967575;28;20228;-51
2020/12/27 11:05:51;;;;;;;6.85;6.15;;;32.80;65.20;;;;;;4967680;28;20239;-50
2020/12/27 11:08:22;;;;;;;8.60;6.93;;;32.80;65.30;;;;;;4967298;28;20286;-48
2020/12/27 11:10:52;;;;;;;8.55;7.28;;;32.70;65.50;;;;;;4954546;28;20251;-48
2020/12/27 11:13:23;;;;;;;7.85;7.05;;;32.70;66.00;;;;;;4967606;28;20286;-51
2020/12/27 11:15:54;;;;;;;12.07;7.93;;;32.70;66.20;;;;;;4965940;28;20232;-50
2020/12/27 11:18:25;;;;;;;9.93;7.85;;;32.60;66.30;;;;;;4967121;28;20762;-50
2020/12/27 11:20:56;;;;;;;11.23;8.27;;;32.60;66.40;;;;;;4963109;28;20236;-52
2020/12/27 11:23:26;;;;;;;10.15;8.10;;;32.60;66.70;;;;;;4965047;28;20242;-51
2020/12/27 11:25:57;;;;;;;10.48;8.05;;;32.50;66.70;;;;;;4966352;28;20236;-52
2020/12/27 11:28:28;;;;;;;9.90;8.88;;;32.50;66.90;;;;;;4967679;28;20263;-52
2020/12/27 11:30:58;;;;;;;11.52;8.95;;;32.50;67.20;;;;;;4955115;28;20310;-52
2020/12/27 11:33:29;;;;;;;9.32;7.88;;;32.50;67.30;;;;;;4959455;28;20286;-50
2020/12/27 11:36:02;;;;;;;10.05;7.70;;;32.50;67.20;;;;;;4967690;28;20236;-49
2020/12/27 11:38:33;;;;;;;7.63;6.78;;;32.50;67.50;;;;;;4968923;28;20320;-55
2020/12/27 11:41:03;;;;;;;7.35;6.38;;;32.50;67.60;;;;;;4978254;28;20721;-50
2020/12/27 11:43:34;;;;;;;6.43;5.82;;;32.50;67.70;;;;;;4948226;28;20287;-53
2020/12/27 11:46:04;;;;;;;6.72;5.97;;;32.50;67.80;;;;;;4950364;28;20279;-53
2020/12/27 11:48:35;;;;;;;6.03;5.53;;;32.50;68.00;;;;;;4966042;28;20236;-52
2020/12/27 11:51:06;;;;;;;5.90;5.38;;;32.50;68.10;;;;;;4966880;28;20233;-52
2020/12/27 11:53:53;;;;;;;5.97;5.47;;;32.50;68.20;;;;;;4955572;28;20589;-51
2020/12/27 11:56:23;;;;;;;6.93;6.15;;;32.50;68.40;;;;;;4948190;28;20248;-53
2020/12/27 11:58:54;;;;;;;7.32;6.32;;;32.50;68.40;;;;;;4956001;28;20228;-51
2020/12/27 12:01:24;;;;;;;7.70;6.20;;;32.50;68.50;;;;;;4965428;28;20285;-52
2020/12/27 12:03:55;;;;;;;7.32;6.63;;;32.50;68.70;;;;;;4967388;28;20817;-52
2020/12/27 12:06:26;;;;;;;7.60;6.75;;;32.50;68.80;;;;;;4966292;28;20232;-55
2020/12/27 12:08:57;;;;;;;7.55;6.70;;;32.50;69.00;;;;;;4964818;28;20244;-50
2020/12/27 12:11:33;;;;;;;8.32;7.47;;;32.50;69.10;;;;;;4966176;28;20652;-52
2020/12/27 12:14:04;;;;;;;9.10;8.20;;;32.50;69.20;;;;;;4926243;28;20240;-52
2020/12/27 12:16:35;;;;;;;8.35;7.50;;;32.50;69.40;;;;;;4925932;28;20266;-52
2020/12/27 12:19:06;;;;;;;7.75;7.05;;;32.40;69.40;;;;;;4925224;28;20280;-52
2020/12/27 12:21:37;;;;;;;7.97;6.60;;;32.40;69.60;;;;;;4924823;28;20312;-53
2020/12/27 12:24:08;;;;;;;5.78;5.18;;;32.40;69.90;;;;;;4914182;28;20261;-51
2020/12/27 12:26:38;;;;;;;6.20;5.30;;;32.40;69.80;;;;;;4923640;28;20234;-50
2020/12/27 12:29:09;;;;;;;6.25;5.55;;;32.40;70.00;;;;;;4924200;28;20284;-52
2020/12/27 12:31:39;;;;;;;6.78;5.85;;;32.40;70.10;;;;;;4915404;28;20242;-50
2020/12/27 12:34:10;;;;;;;7.95;6.93;;;32.30;70.10;;;;;;4925652;29;20233;-52
2020/12/27 12:36:42;;;;;;;6.88;6.20;;;32.40;70.40;;;;;;4925829;28;20238;-51
2020/12/27 12:39:12;;;;;;;6.80;6.18;;;32.30;70.50;;;;;;4924905;28;20666;-52
2020/12/27 12:41:43;;;;;;;7.70;6.95;;;32.30;70.60;;;;;;4925293;29;20710;-51
2020/12/27 12:44:13;;;;;;;6.35;5.72;;;32.30;70.70;;;;;;4927556;28;20244;-51
2020/12/27 12:46:46;;;;;;;6.93;6.22;;;32.30;70.70;;;;;;4956068;28;20606;-54
2020/12/27 12:49:16;;;;;;;7.13;6.43;;;32.20;70.80;;;;;;4966012;28;20228;-52
2020/12/27 12:51:48;;;;;;;6.68;5.97;;;32.20;70.80;;;;;;4966277;28;20255;-55
2020/12/27 12:54:18;;;;;;;5.82;5.32;;;32.20;71.00;;;;;;4947568;28;20241;-51
2020/12/27 12:56:51;;;;;;;6.82;6.13;;;32.20;71.00;;;;;;4956368;28;20233;-50
2020/12/27 12:59:22;;;;;;;7.10;6.40;;;32.20;71.30;;;;;;4965852;28;20696;-53
2020/12/27 13:01:52;;;;;;;8.20;6.68;;;32.20;71.30;;;;;;4966387;28;20240;-52
2020/12/27 13:04:23;;;;;;;7.35;6.28;;;32.10;71.30;;;;;;4954953;28;20257;-51
2020/12/27 13:06:55;;;;;;;6.50;5.90;;;32.10;71.20;;;;;;4955587;28;20232;-53
2020/12/27 13:09:26;;;;;;;8.90;6.82;;;32.10;71.50;;;;;;4963017;28;20236;-53